Time;durP1;ratioP1;P1;durP2;ratioP2;P2;SDS_P1;SDS_P2;PMS_P1;PMS_P2;Temp;Humidity;BMP_temperature;BMP_pressure;BME280_temperature;BME280_humidity;BME280_pressure;Samples;Min_cycle;Max_cycle;Signal;HPM_P1;HPM_P2
2022/06/28 00:02:21;;;;;;;10.90;4.18;;;;;;;29.20;33.54;98719.22;4472397;32;20126;-88
2022/06/28 00:04:47;;;;;;;9.88;4.15;;;;;;;29.16;33.57;98726.09;4486505;32;20121;-88
2022/06/28 00:07:13;;;;;;;13.45;4.40;;;;;;;29.13;33.60;98726.47;4472500;32;20088;-88
2022/06/28 00:09:38;;;;;;;15.77;5.22;;;;;;;29.12;33.57;98722.94;4488420;32;20469;-88
2022/06/28 00:12:04;;;;;;;17.70;7.07;;;;;;;29.13;33.61;98726.47;4488464;32;20085;-88
2022/06/28 00:17:14;;;;;;;23.27;8.02;;;;;;;29.10;33.69;98730.44;4488233;32;20103;-88
2022/06/28 00:19:39;;;;;;;16.80;7.12;;;;;;;29.08;33.67;98731.69;4488056;32;20363;-88
2022/06/28 00:22:04;;;;;;;17.17;5.60;;;;;;;29.04;33.72;98720.41;4488145;32;20154;-88
2022/06/28 00:24:30;;;;;;;11.70;4.28;;;;;;;29.01;33.69;98720.78;4488181;32;20081;-88
2022/06/28 00:26:56;;;;;;;16.48;5.00;;;;;;;29.01;33.58;98716.22;4488191;32;20110;-88
2022/06/28 00:29:21;;;;;;;14.65;4.78;;;;;;;28.99;33.63;98717.47;4488029;32;20096;-88
2022/06/28 00:31:46;;;;;;;12.82;4.37;;;;;;;29.00;33.65;98706.41;4473715;32;20125;-87
2022/06/28 00:34:12;;;;;;;12.88;4.25;;;;;;;28.97;33.73;98716.81;4488100;32;20092;-88
2022/06/28 00:36:37;;;;;;;15.43;4.30;;;;;;;28.98;33.83;98710.38;4473711;32;20724;-88
2022/06/28 00:39:03;;;;;;;13.57;4.40;;;;;;;28.94;33.96;98723.50;4488005;32;20096;-88
2022/06/28 00:41:29;;;;;;;12.90;5.25;;;;;;;28.93;34.01;98732.66;4473773;32;20172;-88
2022/06/28 00:43:55;;;;;;;17.12;5.00;;;;;;;28.93;33.99;98729.94;4473733;32;20092;-88
2022/06/28 00:46:20;;;;;;;11.95;4.45;;;;;;;28.84;34.05;98723.06;4473780;32;20103;-88
2022/06/28 00:48:47;;;;;;;12.98;4.37;;;;;;;28.85;34.01;98723.88;4487993;32;20115;-88
2022/06/28 00:51:12;;;;;;;11.30;3.92;;;;;;;28.84;33.98;98725.78;4473782;32;20096;-88
2022/06/28 00:53:38;;;;;;;9.68;3.70;;;;;;;28.85;34.06;98726.59;4487973;32;20145;-88
2022/06/28 00:56:04;;;;;;;10.35;3.65;;;;;;;28.80;34.15;98719.06;4473763;32;20461;-88
2022/06/28 00:58:30;;;;;;;9.25;3.78;;;;;;;28.78;34.14;98734.69;4487889;32;20096;-88
2022/06/28 01:00:55;;;;;;;10.27;3.72;;;;;;;28.81;34.13;98734.31;4473545;32;20104;-88
2022/06/28 01:03:22;;;;;;;11.52;4.00;;;;;;;28.77;34.31;98728.44;4487854;32;20140;-88
2022/06/28 01:05:48;;;;;;;9.35;3.53;;;;;;;28.78;34.19;98734.69;4473683;32;20088;-88
2022/06/28 01:08:14;;;;;;;9.15;3.15;;;;;;;28.75;34.27;98730.53;4487856;32;20448;-88
2022/06/28 01:10:40;;;;;;;10.93;3.50;;;;;;;28.70;34.54;98743.00;4473805;32;20123;-88
2022/06/28 01:13:07;;;;;;;8.88;3.60;;;;;;;28.68;34.62;98739.66;4488073;32;20093;-88
2022/06/28 01:15:32;;;;;;;7.90;3.45;;;;;;;28.65;34.60;98742.75;4488011;32;20080;-88
2022/06/28 01:17:59;;;;;;;9.38;3.65;;;;;;;28.64;34.61;98736.50;4487679;32;20155;-88
2022/06/28 01:20:25;;;;;;;7.57;3.35;;;;;;;28.51;34.44;98741.84;4473184;32;20108;-88
2022/06/28 01:22:52;;;;;;;9.20;3.67;;;;;;;28.58;34.22;98742.75;4487761;32;20114;-88
2022/06/28 01:25:18;;;;;;;10.77;3.37;;;;;;;28.56;34.21;98737.53;4487822;32;20470;-88
2022/06/28 01:27:43;;;;;;;7.47;3.20;;;;;;;28.59;34.19;98741.72;4487756;32;20100;-88
2022/06/28 01:30:09;;;;;;;7.85;3.55;;;;;;;28.52;34.40;98724.59;4473493;32;20101;-88
2022/06/28 01:32:35;;;;;;;9.88;3.50;;;;;;;28.52;34.39;98735.44;4487669;32;20114;-88
2022/06/28 01:35:02;;;;;;;10.13;3.20;;;;;;;28.50;34.40;98732.06;4487672;32;20378;-88
2022/06/28 01:37:27;;;;;;;8.65;3.30;;;;;;;28.42;34.62;98730.34;4487699;32;20093;-88
2022/06/28 01:39:53;;;;;;;12.93;3.83;;;;;;;28.44;34.48;98731.81;4487612;32;20242;-88
2022/06/28 01:42:18;;;;;;;9.10;3.60;;;;;;;28.41;34.48;98729.50;4487542;32;20122;-87
2022/06/28 01:44:45;;;;;;;9.40;3.83;;;;;;;28.41;34.45;98732.22;4473289;32;20093;-88
2022/06/28 01:47:12;;;;;;;8.60;3.50;;;;;;;28.37;34.59;98722.78;4487700;32;20096;-88
2022/06/28 01:49:37;;;;;;;9.15;3.30;;;;;;;28.35;34.77;98719.44;4487565;32;20088;-87
2022/06/28 01:52:03;;;;;;;9.40;3.45;;;;;;;28.31;34.86;98718.19;4487560;32;20486;-88
2022/06/28 01:54:29;;;;;;;11.63;3.40;;;;;;;28.31;34.84;98720.06;4473225;32;20139;-88
2022/06/28 01:56:55;;;;;;;7.60;3.03;;;;;;;28.27;34.76;98722.34;4487485;32;20183;-88
2022/06/28 01:59:21;;;;;;;9.05;3.30;;;;;;;28.27;34.84;98735.87;4487243;32;20100;-88
2022/06/28 02:01:46;;;;;;;8.23;3.40;;;;;;;28.27;34.92;98732.34;4487461;32;20084;-88
2022/06/28 02:04:28;;;;;;;9.15;3.42;;;;;;;28.21;35.21;98740.22;4473128;32;20083;-88
2022/06/28 02:06:54;;;;;;;7.82;3.10;;;;;;;28.24;35.15;98741.72;4487573;32;20439;-88
2022/06/28 02:09:19;;;;;;;8.55;3.30;;;;;;;28.18;35.03;98748.75;4487365;32;20096;-88
2022/06/28 02:11:45;;;;;;;8.32;3.72;;;;;;;28.15;34.81;98748.31;4487506;32;20085;-88
2022/06/28 02:14:11;;;;;;;9.77;3.33;;;;;;;28.16;34.92;98749.97;4473161;32;20086;-88
2022/06/28 02:16:37;;;;;;;7.53;3.10;;;;;;;28.15;35.07;98746.44;4487388;32;20093;-88
2022/06/28 02:19:03;;;;;;;8.07;3.35;;;;;;;28.16;35.13;98752.69;4487375;32;20140;-88
2022/06/28 02:21:33;;;;;;;11.60;3.53;;;;;;;28.16;35.08;98755.38;4487328;32;20111;-88
2022/06/28 02:23:59;;;;;;;8.27;3.33;;;;;;;28.15;35.00;98751.84;4487473;32;20080;-88
2022/06/28 02:26:24;;;;;;;7.47;3.20;;;;;;;28.14;35.05;98742.03;4487379;32;20118;-88
2022/06/28 02:28:50;;;;;;;7.07;3.05;;;;;;;28.13;35.08;98740.38;4473194;32;20135;-88
2022/06/28 02:31:15;;;;;;;7.45;3.17;;;;;;;28.15;35.07;98732.88;4486261;32;20435;-88
2022/06/28 02:33:41;;;;;;;7.62;3.25;;;;;;;28.17;35.07;98725.41;4487155;32;20076;-88
2022/06/28 02:41:55;;;;;;;10.85;3.40;;;;;;;28.08;35.04;98742.84;4422943;32;20128;-88
2022/06/28 02:44:21;;;;;;;8.10;3.33;;;;;;;28.10;35.38;98750.75;4423167;32;20090;-88
2022/06/28 02:46:46;;;;;;;9.43;3.45;;;;;;;28.12;35.59;98757.66;4410269;32;20121;-88
2022/06/28 02:49:14;;;;;;;8.98;3.50;;;;;;;28.13;35.69;98755.81;4423138;32;20114;-88
2022/06/28 02:51:40;;;;;;;9.55;3.58;;;;;;;28.14;35.64;98752.03;4423116;32;20098;-88
2022/06/28 02:54:05;;;;;;;10.48;3.40;;;;;;;28.16;35.53;98752.69;4423039;32;20093;-88
2022/06/28 02:56:31;;;;;;;8.85;3.17;;;;;;;28.16;35.53;98755.38;4423066;32;20155;-88
2022/06/28 02:58:56;;;;;;;9.00;2.90;;;;;;;28.17;35.60;98747.06;4422907;32;20113;-88
2022/06/28 03:01:22;;;;;;;8.95;3.35;;;;;;;28.18;35.58;98745.19;4422952;32;20148;-87
2022/06/28 03:03:47;;;;;;;6.95;2.80;;;;;;;28.19;35.44;98745.00;4423079;32;20413;-88
2022/06/28 03:06:13;;;;;;;7.62;3.00;;;;;;;28.20;35.28;98738.56;4410026;32;20532;-88
2022/06/28 03:08:38;;;;;;;9.63;3.20;;;;;;;28.26;35.23;98742.34;4423052;32;20213;-88
2022/06/28 03:11:04;;;;;;;8.90;3.17;;;;;;;28.26;35.29;98741.50;4410212;32;20113;-87
2022/06/28 03:13:29;;;;;;;7.75;3.00;;;;;;;28.35;35.24;98734.88;4476505;32;20093;-87
2022/06/28 03:15:55;;;;;;;8.18;2.78;;;;;;;28.40;35.16;98735.13;4487335;32;20130;-87
2022/06/28 03:18:21;;;;;;;7.28;2.80;;;;;;;28.47;35.16;98738.69;4487109;32;20100;-87
2022/06/28 03:20:47;;;;;;;9.13;3.42;;;;;;;28.52;35.30;98740.84;4472969;32;20092;-87
2022/06/28 03:23:12;;;;;;;7.68;3.00;;;;;;;28.55;35.41;98741.28;4487124;32;20080;-87
2022/06/28 03:25:38;;;;;;;9.55;3.10;;;;;;;28.61;35.33;98739.66;4487057;32;20554;-84
2022/06/28 03:28:04;;;;;;;8.52;3.33;;;;;;;28.68;35.28;98756.75;4487232;32;20115;-84
2022/06/28 03:30:31;;;;;;;8.40;3.25;;;;;;;28.74;34.67;98761.41;4472909;32;20084;-84
2022/06/28 03:32:56;;;;;;;11.82;3.45;;;;;;;28.75;34.94;98767.66;4472802;32;20088;-84
2022/06/28 03:35:22;;;;;;;8.57;3.03;;;;;;;28.86;35.00;98777.06;4472521;32;20135;-85
2022/06/28 03:37:47;;;;;;;10.38;2.95;;;;;;;28.95;34.99;98792.94;4486657;32;20110;-85
2022/06/28 03:40:12;;;;;;;8.40;3.20;;;;;;;29.02;35.09;98801.12;4472472;32;20348;-83
2022/06/28 03:42:38;;;;;;;9.38;3.05;;;;;;;29.09;35.03;98810.13;4486407;32;20166;-84
2022/06/28 03:45:04;;;;;;;9.15;3.58;;;;;;;29.21;34.93;98808.53;4472232;32;20438;-83
2022/06/28 03:47:29;;;;;;;8.50;2.95;;;;;;;29.32;34.95;98820.69;4486678;32;20103;-83
2022/06/28 03:49:55;;;;;;;10.48;3.15;;;;;;;29.35;35.21;98833.84;4486519;32;20380;-83
2022/06/28 03:52:28;;;;;;;9.25;3.20;;;;;;;29.45;35.35;98840.75;4486502;32;20107;-83
2022/06/28 03:54:55;;;;;;;7.03;2.67;;;;;;;29.52;35.42;98844.34;4472324;32;20100;-84
2022/06/28 03:57:20;;;;;;;9.32;3.10;;;;;;;29.64;35.31;98858.97;4486468;32;20475;-85
2022/06/28 03:59:45;;;;;;;8.30;3.35;;;;;;;29.63;36.03;98851.84;4471977;32;20092;-84
2022/06/28 04:02:11;;;;;;;9.15;3.10;;;;;;;29.77;34.79;98856.31;4486315;32;20068;-85
2022/06/28 04:04:36;;;;;;;7.47;2.90;;;;;;;29.80;34.32;98855.06;4486356;32;20092;-85
2022/06/28 04:07:02;;;;;;;10.40;3.00;;;;;;;29.71;33.01;98851.69;4486408;32;20080;-85
2022/06/28 04:09:27;;;;;;;9.02;3.17;;;;;;;29.82;33.33;98861.12;4486277;32;20114;-85
2022/06/28 04:11:53;;;;;;;7.90;3.08;;;;;;;29.94;33.20;98854.03;4486194;32;20093;-85
2022/06/28 04:14:18;;;;;;;11.82;3.30;;;;;;;30.02;33.29;98852.16;4486178;32;20124;-85
2022/06/28 04:16:44;;;;;;;9.27;2.92;;;;;;;30.05;33.09;98858.00;4486499;32;20149;-84
2022/06/28 04:19:09;;;;;;;9.95;3.58;;;;;;;30.32;32.56;98856.16;4486417;32;20111;-85
2022/06/28 04:21:35;;;;;;;8.95;2.75;;;;;;;30.46;32.20;98854.28;4472091;32;20112;-85
2022/06/28 04:24:01;;;;;;;17.75;3.28;;;;;;;30.61;32.31;98853.22;4471849;32;20097;-85
2022/06/28 04:26:26;;;;;;;13.68;3.10;;;;;;;31.06;31.15;98859.63;4486178;32;20093;-85
2022/06/28 04:28:51;;;;;;;10.57;3.28;;;;;;;31.12;31.24;98852.47;4471894;32;20124;-85
2022/06/28 04:31:17;;;;;;;13.57;2.80;;;;;;;31.51;30.56;98843.31;4485964;32;20080;-85
2022/06/28 04:33:43;;;;;;;10.20;3.28;;;;;;;31.85;30.02;98830.31;4471664;32;20398;-85
2022/06/28 04:36:08;;;;;;;9.68;3.60;;;;;;;32.16;30.54;98834.06;4485935;32;20488;-85
2022/06/28 04:38:34;;;;;;;9.55;3.30;;;;;;;32.51;31.07;98839.03;4485773;32;20222;-85
2022/06/28 04:40:59;;;;;;;9.07;3.45;;;;;;;32.90;29.95;98843.25;4485784;32;20120;-85
2022/06/28 04:43:25;;;;;;;37.67;5.05;;;;;;;32.94;28.87;98846.34;4471669;32;20138;-85
2022/06/28 04:45:50;;;;;;;9.13;3.37;;;;;;;33.08;29.35;98849.75;4485726;32;20100;-85
2022/06/28 04:48:16;;;;;;;10.20;3.30;;;;;;;33.15;28.23;98861.47;4471220;32;20112;-85
2022/06/28 04:50:41;;;;;;;8.73;3.22;;;;;;;33.28;27.43;98882.28;4485709;32;20120;-85
2022/06/28 04:53:07;;;;;;;8.45;2.95;;;;;;;33.17;28.28;98894.81;4485581;32;20115;-85
2022/06/28 04:55:32;;;;;;;7.72;3.00;;;;;;;32.79;29.15;98909.47;4487835;32;20076;-85
2022/06/28 04:57:57;;;;;;;11.32;3.33;;;;;;;32.37;29.44;98911.06;4488140;32;20484;-85
2022/06/28 05:00:23;;;;;;;8.93;3.35;;;;;;;32.05;30.17;98914.66;4487926;32;20076;-85
2022/06/28 05:02:48;;;;;;;17.87;3.50;;;;;;;31.90;30.57;98916.84;4488242;32;20423;-85
2022/06/28 05:05:14;;;;;;;11.65;3.78;;;;;;;31.62;30.91;98920.78;4488183;32;20118;-85
2022/06/28 05:07:39;;;;;;;9.52;3.62;;;;;;;31.35;31.45;98923.56;4488115;32;20099;-85
2022/06/28 05:10:05;;;;;;;7.60;3.37;;;;;;;31.09;31.71;98926.37;4488066;32;20124;-85
2022/06/28 05:12:31;;;;;;;10.73;3.67;;;;;;;30.83;31.97;98927.22;4488011;32;20175;-85
2022/06/28 05:14:56;;;;;;;10.57;3.40;;;;;;;30.67;32.40;98942.09;4488182;32;20512;-85
2022/06/28 05:17:22;;;;;;;9.10;3.30;;;;;;;30.48;32.91;98924.72;4488083;32;20114;-85
2022/06/28 05:19:48;;;;;;;8.85;3.50;;;;;;;30.57;32.89;98939.78;4473656;32;20085;-85
2022/06/28 05:22:14;;;;;;;10.57;3.37;;;;;;;30.55;32.95;98937.28;4488100;32;20439;-85
2022/06/28 05:24:39;;;;;;;9.63;3.15;;;;;;;30.51;33.09;98938.75;4488070;32;20110;-85
2022/06/28 05:27:05;;;;;;;33.85;4.45;;;;;;;30.23;33.93;98966.09;4487994;32;20100;-84
2022/06/28 05:29:30;;;;;;;15.43;3.40;;;;;;;29.26;37.44;98970.72;4473737;32;20144;-85
2022/06/28 05:31:56;;;;;;;12.27;3.30;;;;;;;29.19;38.53;98981.53;4487934;32;20081;-86
2022/06/28 05:34:22;;;;;;;9.70;3.42;;;;;;;28.51;40.46;98975.78;4473541;32;20105;-85
2022/06/28 05:36:47;;;;;;;9.57;3.58;;;;;;;28.27;41.61;98966.16;4487671;32;20096;-84
2022/06/28 05:39:13;;;;;;;9.82;3.53;;;;;;;28.43;41.64;98963.19;4473342;32;20096;-84
2022/06/28 05:41:41;;;;;;;15.45;4.05;;;;;;;28.41;41.93;98962.53;4473307;32;20174;-84
2022/06/28 05:44:07;;;;;;;9.80;3.70;;;;;;;28.30;42.43;98982.03;4473340;32;20132;-85
2022/06/28 05:46:33;;;;;;;12.45;3.67;;;;;;;28.32;42.46;98981.81;4473412;32;20411;-85
2022/06/28 05:48:58;;;;;;;18.90;4.20;;;;;;;28.33;42.59;98959.94;4487431;32;20138;-85
2022/06/28 05:51:24;;;;;;;9.82;3.53;;;;;;;28.34;45.43;98933.72;4487452;32;20100;-86
2022/06/28 05:53:50;;;;;;;12.63;4.50;;;;;;;28.28;46.90;98901.97;4487516;32;20089;-85
2022/06/28 05:56:16;;;;;;;16.20;4.47;;;;;;;28.00;46.02;98873.78;4487445;32;20196;-85
2022/06/28 05:58:41;;;;;;;12.82;4.60;;;;;;;28.09;47.94;98860.16;4487325;32;20427;-85
2022/06/28 06:01:07;;;;;;;8.50;3.60;;;;;;;28.12;50.65;98871.41;4487196;32;20096;-85
2022/06/28 06:03:33;;;;;;;8.93;3.12;;;;;;;28.09;48.36;98884.53;4487358;32;20173;-85
2022/06/28 06:05:58;;;;;;;11.00;3.60;;;;;;;27.93;42.72;98870.22;4487543;32;20116;-84
2022/06/28 06:08:24;;;;;;;13.43;4.30;;;;;;;27.98;46.87;98858.78;4487445;32;20100;-84
2022/06/28 06:10:49;;;;;;;13.73;4.62;;;;;;;27.97;50.29;98811.91;4487378;32;20135;-85
2022/06/28 06:13:15;;;;;;;10.77;3.90;;;;;;;27.99;50.88;98799.03;4487461;32;20109;-84
2022/06/28 06:15:40;;;;;;;12.20;3.50;;;;;;;27.99;51.21;98790.91;4487372;32;20169;-85
2022/06/28 06:18:06;;;;;;;10.40;3.60;;;;;;;28.01;49.81;98788.00;4487299;32;20107;-85
2022/06/28 06:20:31;;;;;;;10.02;3.58;;;;;;;28.01;50.42;98788.84;4487404;32;20104;-84
2022/06/28 06:22:57;;;;;;;11.07;3.50;;;;;;;28.01;50.36;98828.63;4487219;32;20084;-85
2022/06/28 06:25:22;;;;;;;12.15;3.97;;;;;;;28.04;51.16;98818.22;4487293;32;20114;-85
2022/06/28 06:27:48;;;;;;;13.05;3.78;;;;;;;28.03;50.88;98811.13;4487256;32;20113;-84
2022/06/28 06:30:13;;;;;;;16.12;3.65;;;;;;;27.91;50.62;98860.59;4487228;32;20108;-84
2022/06/28 06:32:39;;;;;;;12.60;4.05;;;;;;;27.68;50.23;98885.97;4487527;32;20115;-85
2022/06/28 06:35:05;;;;;;;10.75;2.92;;;;;;;27.39;52.36;98898.53;4487416;32;20164;-85
2022/06/28 06:37:30;;;;;;;9.52;2.67;;;;;;;27.04;48.26;98836.06;4487474;32;20096;-84
2022/06/28 06:39:56;;;;;;;9.90;3.00;;;;;;;27.24;49.39;98824.66;4473128;32;20492;-84
2022/06/28 06:42:21;;;;;;;11.48;3.30;;;;;;;27.37;49.99;98813.16;4487388;32;20084;-84
2022/06/28 06:44:47;;;;;;;12.68;3.85;;;;;;;27.39;51.62;98816.50;4473144;32;20089;-85
2022/06/28 06:47:12;;;;;;;10.90;2.90;;;;;;;27.51;52.73;98828.53;4487318;32;20106;-84
2022/06/28 06:49:38;;;;;;;13.55;2.60;;;;;;;27.20;50.10;98866.63;4473026;32;20097;-84
2022/06/28 06:52:04;;;;;;;9.38;2.20;;;;;;;27.18;48.43;98858.69;4487352;32;20130;-84
2022/06/28 06:54:29;;;;;;;8.15;2.12;;;;;;;27.19;49.47;98851.41;4487087;32;20104;-84
2022/06/28 06:56:55;;;;;;;11.68;2.85;;;;;;;27.22;51.80;98865.41;4483301;32;131930;-85
2022/06/28 06:59:20;;;;;;;11.55;2.72;;;;;;;27.14;51.22;98846.59;4487132;32;20173;-84
2022/06/28 07:01:46;;;;;;;9.43;2.08;;;;;;;27.31;51.23;98849.09;4487335;32;20112;-85
2022/06/28 07:04:12;;;;;;;9.88;2.30;;;;;;;27.42;51.63;98846.72;4487323;32;20140;-84
2022/06/28 07:06:37;;;;;;;15.88;2.55;;;;;;;27.49;52.47;98870.31;4472819;32;20092;-85
2022/06/28 07:09:04;;;;;;;9.30;1.92;;;;;;;27.42;51.12;98851.31;4486992;32;20100;-85
2022/06/28 07:11:29;;;;;;;9.75;1.90;;;;;;;27.46;50.85;98836.38;4472767;32;20498;-84
2022/06/28 07:13:55;;;;;;;11.10;2.30;;;;;;;27.56;51.05;98825.22;4486844;32;20081;-85
2022/06/28 07:16:20;;;;;;;9.65;2.12;;;;;;;27.64;51.48;98803.44;4472011;32;20088;-85
2022/06/28 07:18:46;;;;;;;9.10;1.90;;;;;;;27.66;51.71;98782.44;4486796;32;20373;-85
2022/06/28 07:21:11;;;;;;;8.43;1.80;;;;;;;27.67;51.33;98775.19;4486954;32;20156;-84
2022/06/28 07:23:37;;;;;;;10.15;1.73;;;;;;;27.73;51.23;98764.41;4486910;32;20341;-85
2022/06/28 07:26:03;;;;;;;7.47;1.70;;;;;;;27.81;50.98;98752.59;4472464;32;20103;-84
2022/06/28 07:28:28;;;;;;;9.40;1.70;;;;;;;27.94;50.63;98755.44;4486870;32;20436;-85
2022/06/28 07:30:54;;;;;;;9.63;1.95;;;;;;;28.08;50.16;98769.91;4472485;32;20096;-84
2022/06/28 07:33:19;;;;;;;10.40;1.92;;;;;;;28.15;50.70;98778.09;4486920;32;20091;-84
2022/06/28 07:35:45;;;;;;;12.68;2.90;;;;;;;28.32;50.55;98793.03;4472422;32;20084;-85
2022/06/28 07:38:11;;;;;;;15.45;2.55;;;;;;;28.44;50.08;98807.69;4486625;32;20119;-84
2022/06/28 07:40:37;;;;;;;15.00;2.42;;;;;;;28.28;49.22;98843.22;4472470;32;20379;-84
2022/06/28 07:43:02;;;;;;;9.25;2.05;;;;;;;28.09;48.95;98838.47;4486661;32;20110;-85
2022/06/28 07:45:28;;;;;;;6.78;1.83;;;;;;;28.02;49.89;98841.13;4472304;32;20452;-85
2022/06/28 07:47:53;;;;;;;9.95;2.35;;;;;;;28.13;49.86;98856.00;4486634;32;20093;-87
2022/06/28 07:53:05;;;;;;;8.27;1.75;;;;;;;28.10;49.21;98846.38;4486625;32;20164;-87
2022/06/28 07:55:31;;;;;;;11.80;2.85;;;;;;;28.23;49.79;98840.25;4486501;32;20088;-87
2022/06/28 07:57:57;;;;;;;8.85;1.73;;;;;;;28.30;48.18;98833.03;4486392;32;20423;-87
2022/06/28 08:00:23;;;;;;;10.55;1.65;;;;;;;28.38;49.13;98819.31;4486275;32;20092;-87
2022/06/28 08:02:49;;;;;;;11.12;2.00;;;;;;;28.49;47.76;98820.66;4486337;32;20081;-87
2022/06/28 08:05:15;;;;;;;9.85;1.95;;;;;;;28.53;47.17;98812.97;4486660;32;20084;-85
2022/06/28 08:07:41;;;;;;;13.38;3.45;;;;;;;28.57;46.11;98819.69;4459296;32;20131;-85
2022/06/28 08:10:07;;;;;;;14.57;2.12;;;;;;;28.71;43.42;98821.44;4486639;32;20110;-85
2022/06/28 08:12:33;;;;;;;43.38;21.27;;;;;;;28.88;44.55;98842.78;4471931;32;20080;-84
2022/06/28 08:14:59;;;;;;;15.48;4.82;;;;;;;28.87;46.63;98860.09;4486106;32;20181;-85
2022/06/28 08:17:24;;;;;;;12.98;3.25;;;;;;;28.96;47.06;98873.28;4486279;32;20116;-85
2022/06/28 08:19:50;;;;;;;14.70;3.58;;;;;;;28.73;47.15;98881.69;4486042;32;20097;-84
2022/06/28 08:22:15;;;;;;;18.45;6.82;;;;;;;28.68;46.62;98880.63;4486075;32;20096;-87
2022/06/28 08:24:40;;;;;;;14.27;4.72;;;;;;;28.78;44.54;98887.38;4471818;32;20124;-86
2022/06/28 08:27:06;;;;;;;13.50;3.42;;;;;;;28.87;44.99;98882.63;4485900;32;20096;-87
2022/06/28 08:29:33;;;;;;;12.77;2.70;;;;;;;29.05;46.49;98881.25;4487317;32;20159;-86
2022/06/28 08:31:59;;;;;;;10.02;2.87;;;;;;;29.26;47.89;98880.34;4488290;32;20451;-86
2022/06/28 08:34:24;;;;;;;10.48;2.20;;;;;;;29.40;47.63;98880.19;4488280;32;20084;-86
2022/06/28 08:36:50;;;;;;;9.88;2.37;;;;;;;29.43;46.27;98886.25;4488344;32;20375;-85
2022/06/28 08:39:15;;;;;;;9.70;2.20;;;;;;;29.56;45.46;98898.00;4488333;32;20375;-84
2022/06/28 08:41:42;;;;;;;9.95;2.22;;;;;;;29.48;44.22;98900.91;4488375;32;20088;-85
2022/06/28 08:44:12;;;;;;;13.38;4.37;;;;;;;29.41;44.85;98892.72;4474166;32;20080;-85
2022/06/28 08:46:38;;;;;;;13.20;2.83;;;;;;;29.70;43.38;98896.16;4488208;32;20546;-85
2022/06/28 08:49:10;;;;;;;11.00;2.30;;;;;;;29.72;44.23;98898.66;4473977;32;20263;-85
2022/06/28 08:51:35;;;;;;;11.98;3.83;;;;;;;29.62;44.49;98901.78;4473695;32;20167;-86
2022/06/28 08:54:02;;;;;;;12.95;3.83;;;;;;;29.53;44.89;98909.25;4473679;32;20420;-85
2022/06/28 08:56:28;;;;;;;6.07;2.10;;;;;;;29.68;45.23;98910.97;4488020;32;20123;-84
2022/06/28 08:58:56;;;;;;;9.60;2.50;;;;;;;29.70;45.47;98915.16;4487861;32;20550;-84
2022/06/28 09:01:21;;;;;;;10.95;3.00;;;;;;;29.51;46.58;98919.47;4487772;32;20156;-85
2022/06/28 09:03:51;;;;;;;8.48;3.03;;;;;;;29.30;46.97;98912.28;4473815;32;20424;-84
2022/06/28 09:06:16;;;;;;;12.13;4.87;;;;;;;29.25;47.61;98913.97;4487969;32;20100;-85
2022/06/28 09:08:42;;;;;;;8.85;2.85;;;;;;;29.18;48.20;98914.75;4487845;32;20096;-85
2022/06/28 09:11:07;;;;;;;10.50;3.50;;;;;;;29.30;47.93;98915.00;4487771;32;20110;-85
2022/06/28 09:13:35;;;;;;;9.35;3.28;;;;;;;29.47;47.87;98917.38;4487773;32;20089;-86
2022/06/28 09:16:03;;;;;;;9.25;3.60;;;;;;;29.53;48.39;98917.38;4487655;32;20455;-85
2022/06/28 09:18:34;;;;;;;14.48;9.02;;;;;;;29.78;47.86;98927.75;4487725;32;20134;-85
2022/06/28 09:21:01;;;;;;;12.05;3.30;;;;;;;29.85;47.90;98923.19;4487937;32;20093;-84
2022/06/28 09:23:33;;;;;;;10.38;3.50;;;;;;;29.89;46.72;98920.91;4460567;32;20501;-84
2022/06/28 09:26:13;;;;;;;10.38;3.62;;;;;;;30.03;47.25;98916.31;4487772;32;20456;-85
2022/06/28 09:28:49;;;;;;;8.68;3.47;;;;;;;30.14;47.72;98913.81;4460472;32;20104;-85
2022/06/28 09:31:15;;;;;;;8.02;3.10;;;;;;;30.00;47.05;98912.16;4487691;32;20441;-85
2022/06/28 09:33:42;;;;;;;8.05;3.58;;;;;;;30.20;47.02;98909.44;4487701;32;20132;-85
2022/06/28 09:36:16;;;;;;;10.18;3.97;;;;;;;30.09;47.27;98913.59;4473538;32;20108;-86
2022/06/28 09:38:42;;;;;;;10.73;4.00;;;;;;;30.30;47.61;98914.47;4487586;32;20104;-85
2022/06/28 09:41:28;;;;;;;12.48;3.87;;;;;;;30.45;47.04;98914.28;4487605;32;20112;-86
2022/06/28 09:44:03;;;;;;;9.10;4.00;;;;;;;30.57;47.25;98920.75;4487793;32;20091;-85
2022/06/28 09:46:30;;;;;;;8.80;3.70;;;;;;;30.74;47.14;98911.13;4487766;32;20123;-85
2022/06/28 09:49:01;;;;;;;9.75;3.70;;;;;;;30.93;47.08;98914.06;4487810;32;20225;-84
2022/06/28 09:51:29;;;;;;;10.18;3.92;;;;;;;31.01;46.99;98918.44;4473611;32;20183;-84
2022/06/28 09:54:05;;;;;;;8.93;4.05;;;;;;;31.03;46.62;98919.06;4473702;32;20089;-85
2022/06/28 09:56:35;;;;;;;9.05;3.65;;;;;;;30.93;46.56;98916.78;4487780;32;20173;-85
2022/06/28 09:59:02;;;;;;;13.82;4.80;;;;;;;30.89;46.92;98918.22;4487800;32;20172;-85
2022/06/28 10:01:28;;;;;;;10.10;3.80;;;;;;;30.87;47.15;98917.59;4487745;32;20580;-86
2022/06/28 10:03:54;;;;;;;11.55;4.80;;;;;;;30.92;47.08;98917.81;4487690;32;20336;-85
2022/06/28 10:06:21;;;;;;;10.85;4.28;;;;;;;30.92;47.88;98923.25;4487645;32;20126;-88
2022/06/28 10:08:47;;;;;;;9.82;4.65;;;;;;;30.97;46.91;98918.03;4473495;32;20108;-88
2022/06/28 10:11:14;;;;;;;9.73;4.40;;;;;;;30.94;46.11;98926.59;4487773;32;20448;-87
2022/06/28 10:16:29;;;;;;;10.85;4.70;;;;;;;30.65;47.68;98931.41;4475289;32;20235;-85
2022/06/28 10:18:55;;;;;;;17.27;10.18;;;;;;;30.60;47.68;98936.66;4473212;32;20131;-86
2022/06/28 10:21:52;;;;;;;10.63;5.07;;;;;;;30.30;48.67;98926.16;4472975;32;20104;-86
2022/06/28 10:24:17;;;;;;;9.90;4.57;;;;;;;30.46;47.85;98935.84;4487353;32;20114;-87
2022/06/28 10:27:12;;;;;;;11.80;5.78;;;;;;;30.40;48.22;98930.38;4487292;32;20096;-85
2022/06/28 10:30:07;;;;;;;10.73;4.32;;;;;;;30.66;48.22;98924.94;4473485;32;20127;-86
2022/06/28 10:32:40;;;;;;;9.80;4.80;;;;;;;30.49;48.67;98921.81;4487289;32;20100;-86
2022/06/28 10:35:05;;;;;;;10.85;4.50;;;;;;;30.74;48.08;98918.44;4487261;32;20672;-86
2022/06/28 10:37:31;;;;;;;9.55;4.35;;;;;;;30.73;46.92;98912.19;4487176;32;20105;-86
2022/06/28 10:40:24;;;;;;;10.70;4.62;;;;;;;30.85;47.08;98923.25;4487220;32;20096;-85
2022/06/28 10:42:52;;;;;;;11.35;4.60;;;;;;;30.96;46.14;98913.63;4487216;32;20462;-88
2022/06/28 10:45:21;;;;;;;11.88;4.90;;;;;;;30.96;46.23;98909.03;4487275;32;20088;-88
2022/06/28 10:48:09;;;;;;;9.80;4.40;;;;;;;30.77;46.64;98918.00;4487198;32;20127;-86
2022/06/28 10:50:53;;;;;;;;;;;;;;;30.91;45.56;98910.72;4487451;32;20100;-86
2022/06/28 10:53:19;;;;;;;13.38;4.45;;;;;;;30.94;45.41;98900.22;4486745;32;20031;-86
2022/06/28 10:56:10;;;;;;;9.82;4.70;;;;;;;31.13;44.97;98903.13;4487022;32;20108;-85
2022/06/28 10:58:58;;;;;;;9.98;4.28;;;;;;;31.07;45.58;98895.81;4486950;32;20088;-85
2022/06/28 11:01:46;;;;;;;10.23;4.20;;;;;;;31.06;45.42;98894.13;4486972;32;20495;-86
2022/06/28 11:04:18;;;;;;;15.55;6.87;;;;;;;31.05;45.77;98893.31;4478380;32;20111;-88
2022/06/28 11:06:45;;;;;;;11.68;4.90;;;;;;;31.13;46.95;98897.69;4487060;32;20151;-87
2022/06/28 11:09:44;;;;;;;11.15;4.40;;;;;;;31.04;45.76;98888.06;4486921;32;20459;-86
2022/06/28 11:12:19;;;;;;;10.45;4.50;;;;;;;30.85;45.51;98893.34;4472754;32;20520;-86
2022/06/28 11:14:56;;;;;;;11.90;4.78;;;;;;;31.05;45.76;98893.31;4472730;32;20111;-86
2022/06/28 11:17:29;;;;;;;8.95;4.18;;;;;;;31.11;45.51;98900.59;4487248;32;20068;-86
2022/06/28 11:19:57;;;;;;;11.27;4.32;;;;;;;31.02;44.79;98885.56;4487013;32;20154;-85
2022/06/28 11:22:28;;;;;;;10.52;4.43;;;;;;;31.28;45.13;98890.09;4486930;32;20134;-85
2022/06/28 11:24:55;;;;;;;11.77;4.47;;;;;;;31.42;43.96;98876.41;4486903;32;20096;-86
2022/06/28 11:27:21;;;;;;;;;;;;;;;31.41;43.30;98882.91;4487055;32;20522;-86
2022/06/28 11:30:07;;;;;;;9.85;4.25;;;;;;;31.53;43.21;98875.78;4486958;32;20006;-86
2022/06/28 11:32:35;;;;;;;12.90;4.47;;;;;;;31.57;43.00;98882.44;4486387;32;20092;-86
2022/06/28 11:35:12;;;;;;;9.98;4.22;;;;;;;31.56;42.88;98872.59;4472463;32;20104;-86
2022/06/28 11:38:02;;;;;;;11.20;4.67;;;;;;;31.58;42.87;98864.22;4486846;32;20440;-86
2022/06/28 11:40:49;;;;;;;9.02;4.18;;;;;;;31.66;42.95;98864.81;4472572;32;20532;-86
2022/06/28 11:43:25;;;;;;;10.15;4.68;;;;;;;31.79;42.23;98861.16;4486769;32;20095;-85
2022/06/28 11:45:52;;;;;;;10.18;4.37;;;;;;;31.76;41.86;98867.06;4486733;32;20072;-85